sensor_id;sensor_type;location;lat;lon;timestamp;temperature;humidity
52125;DHT22;38119;52.710;6.398;2024-01-27T00:00:08;3.90;99.90
52125;DHT22;38119;52.710;6.398;2024-01-27T00:02:35;3.80;99.90
52125;DHT22;38119;52.710;6.398;2024-01-27T00:05:02;3.80;99.90
52125;DHT22;38119;52.710;6.398;2024-01-27T00:07:28;3.80;99.90
52125;DHT22;38119;52.710;6.398;2024-01-27T00:09:54;3.80;99.90
52125;DHT22;38119;52.710;6.398;2024-01-27T00:12:21;3.80;99.90
52125;DHT22;38119;52.710;6.398;2024-01-27T00:14:46;3.80;99.90
52125;DHT22;38119;52.710;6.398;2024-01-27T00:17:12;3.80;99.90
52125;DHT22;38119;52.710;6.398;2024-01-27T00:19:37;3.80;99.90
52125;DHT22;38119;52.710;6.398;2024-01-27T00:22:03;3.80;99.90
52125;DHT22;38119;52.710;6.398;2024-01-27T00:24:28;3.80;99.90
52125;DHT22;38119;52.710;6.398;2024-01-27T00:26:54;3.80;99.90
52125;DHT22;38119;52.710;6.398;2024-01-27T00:29:20;3.80;99.90
52125;DHT22;38119;52.710;6.398;2024-01-27T00:31:45;3.70;99.90
52125;DHT22;38119;52.710;6.398;2024-01-27T00:34:11;3.70;99.90
52125;DHT22;38119;52.710;6.398;2024-01-27T00:36:36;3.70;99.90
52125;DHT22;38119;52.710;6.398;2024-01-27T00:39:03;3.70;99.90
52125;DHT22;38119;52.710;6.398;2024-01-27T00:41:29;3.70;99.90
52125;DHT22;38119;52.710;6.398;2024-01-27T00:43:54;3.60;99.90
52125;DHT22;38119;52.710;6.398;2024-01-27T00:46:20;3.70;99.90
52125;DHT22;38119;52.710;6.398;2024-01-27T00:48:45;3.60;99.90
52125;DHT22;38119;52.710;6.398;2024-01-27T00:51:12;3.70;99.90
52125;DHT22;38119;52.710;6.398;2024-01-27T00:53:38;3.70;99.90
52125;DHT22;38119;52.710;6.398;2024-01-27T00:56:04;3.60;99.90
52125;DHT22;38119;52.710;6.398;2024-01-27T00:58:30;3.60;99.90
52125;DHT22;38119;52.710;6.398;2024-01-27T01:00:55;3.60;99.90
52125;DHT22;38119;52.710;6.398;2024-01-27T01:03:21;3.60;99.90
52125;DHT22;38119;52.710;6.398;2024-01-27T01:05:46;3.50;99.90
52125;DHT22;38119;52.710;6.398;2024-01-27T01:08:12;3.60;99.90
52125;DHT22;38119;52.710;6.398;2024-01-27T01:10:37;3.60;99.90
52125;DHT22;38119;52.710;6.398;2024-01-27T01:13:03;3.50;99.90
52125;DHT22;38119;52.710;6.398;2024-01-27T01:15:29;3.50;99.90
52125;DHT22;38119;52.710;6.398;2024-01-27T01:17:55;3.50;99.90
52125;DHT22;38119;52.710;6.398;2024-01-27T01:20:20;3.50;99.90
52125;DHT22;38119;52.710;6.398;2024-01-27T01:22:46;3.40;99.90
52125;DHT22;38119;52.710;6.398;2024-01-27T01:25:11;3.40;99.90
52125;DHT22;38119;52.710;6.398;2024-01-27T01:27:37;3.40;99.90
52125;DHT22;38119;52.710;6.398;2024-01-27T01:30:03;3.40;99.90
52125;DHT22;38119;52.710;6.398;2024-01-27T01:32:28;3.40;99.90
52125;DHT22;38119;52.710;6.398;2024-01-27T01:34:54;3.40;99.90
52125;DHT22;38119;52.710;6.398;2024-01-27T01:37:19;3.40;99.90
52125;DHT22;38119;52.710;6.398;2024-01-27T01:39:45;3.40;99.90
52125;DHT22;38119;52.710;6.398;2024-01-27T01:42:10;3.40;99.90
52125;DHT22;38119;52.710;6.398;2024-01-27T01:44:36;3.40;99.90
52125;DHT22;38119;52.710;6.398;2024-01-27T01:47:01;3.50;99.90
52125;DHT22;38119;52.710;6.398;2024-01-27T01:49:28;3.40;99.90
52125;DHT22;38119;52.710;6.398;2024-01-27T01:51:54;3.40;99.90
52125;DHT22;38119;52.710;6.398;2024-01-27T01:54:20;3.40;99.90
52125;DHT22;38119;52.710;6.398;2024-01-27T01:56:47;3.40;99.90
52125;DHT22;38119;52.710;6.398;2024-01-27T01:59:13;3.40;99.90
52125;DHT22;38119;52.710;6.398;2024-01-27T02:01:39;3.40;99.90
52125;DHT22;38119;52.710;6.398;2024-01-27T02:04:04;3.40;99.90
52125;DHT22;38119;52.710;6.398;2024-01-27T02:06:30;3.40;99.90
52125;DHT22;38119;52.710;6.398;2024-01-27T02:08:55;3.40;99.90
52125;DHT22;38119;52.710;6.398;2024-01-27T02:11:21;3.40;99.90
52125;DHT22;38119;52.710;6.398;2024-01-27T02:13:47;3.30;99.90
52125;DHT22;38119;52.710;6.398;2024-01-27T02:16:12;3.30;99.90
52125;DHT22;38119;52.710;6.398;2024-01-27T02:18:38;3.30;99.90
52125;DHT22;38119;52.710;6.398;2024-01-27T02:21:03;3.40;99.90
52125;DHT22;38119;52.710;6.398;2024-01-27T02:23:29;3.30;99.90
52125;DHT22;38119;52.710;6.398;2024-01-27T02:25:55;3.30;99.90
52125;DHT22;38119;52.710;6.398;2024-01-27T02:28:23;3.30;99.90
52125;DHT22;38119;52.710;6.398;2024-01-27T02:30:49;3.20;99.90
52125;DHT22;38119;52.710;6.398;2024-01-27T02:33:14;3.30;99.90
52125;DHT22;38119;52.710;6.398;2024-01-27T02:35:40;3.30;99.90
52125;DHT22;38119;52.710;6.398;2024-01-27T02:38:05;3.40;99.90
52125;DHT22;38119;52.710;6.398;2024-01-27T02:40:31;3.30;99.90
52125;DHT22;38119;52.710;6.398;2024-01-27T02:42:56;3.30;99.90
52125;DHT22;38119;52.710;6.398;2024-01-27T02:45:22;3.20;99.90
52125;DHT22;38119;52.710;6.398;2024-01-27T02:47:47;3.20;99.90
52125;DHT22;38119;52.710;6.398;2024-01-27T02:50:13;3.30;99.90
52125;DHT22;38119;52.710;6.398;2024-01-27T02:52:39;3.20;99.90
52125;DHT22;38119;52.710;6.398;2024-01-27T02:55:06;3.30;99.90
52125;DHT22;38119;52.710;6.398;2024-01-27T02:57:31;3.30;99.90
52125;DHT22;38119;52.710;6.398;2024-01-27T02:59:57;3.20;99.90
52125;DHT22;38119;52.710;6.398;2024-01-27T03:02:22;3.20;99.90
52125;DHT22;38119;52.710;6.398;2024-01-27T03:04:48;3.20;99.90
52125;DHT22;38119;52.710;6.398;2024-01-27T03:07:13;3.20;99.90
52125;DHT22;38119;52.710;6.398;2024-01-27T03:09:39;3.20;99.90
52125;DHT22;38119;52.710;6.398;2024-01-27T03:12:05;3.20;99.90
52125;DHT22;38119;52.710;6.398;2024-01-27T03:14:30;3.20;99.90
52125;DHT22;38119;52.710;6.398;2024-01-27T03:16:56;3.20;99.90
52125;DHT22;38119;52.710;6.398;2024-01-27T03:19:21;3.20;99.90
52125;DHT22;38119;52.710;6.398;2024-01-27T03:21:47;3.20;99.90
52125;DHT22;38119;52.710;6.398;2024-01-27T03:24:13;3.20;99.90
52125;DHT22;38119;52.710;6.398;2024-01-27T03:26:38;3.20;99.90
52125;DHT22;38119;52.710;6.398;2024-01-27T03:29:04;3.20;99.90
52125;DHT22;38119;52.710;6.398;2024-01-27T03:31:30;3.20;99.90
52125;DHT22;38119;52.710;6.398;2024-01-27T03:33:56;3.20;99.90
52125;DHT22;38119;52.710;6.398;2024-01-27T03:36:22;3.20;99.90
52125;DHT22;38119;52.710;6.398;2024-01-27T03:38:47;3.10;99.90
52125;DHT22;38119;52.710;6.398;2024-01-27T03:41:13;3.10;99.90
52125;DHT22;38119;52.710;6.398;2024-01-27T03:43:39;3.10;99.90
52125;DHT22;38119;52.710;6.398;2024-01-27T03:46:04;3.10;99.90
52125;DHT22;38119;52.710;6.398;2024-01-27T03:48:30;3.10;99.90
52125;DHT22;38119;52.710;6.398;2024-01-27T03:50:55;3.10;99.90
52125;DHT22;38119;52.710;6.398;2024-01-27T03:53:21;3.10;99.90
52125;DHT22;38119;52.710;6.398;2024-01-27T03:55:47;3.10;99.90
52125;DHT22;38119;52.710;6.398;2024-01-27T03:58:12;3.10;99.90
52125;DHT22;38119;52.710;6.398;2024-01-27T04:00:38;3.10;99.90
52125;DHT22;38119;52.710;6.398;2024-01-27T04:03:03;3.10;99.90
52125;DHT22;38119;52.710;6.398;2024-01-27T04:05:29;3.10;99.90
52125;DHT22;38119;52.710;6.398;2024-01-27T04:07:55;3.10;99.90
52125;DHT22;38119;52.710;6.398;2024-01-27T04:10:21;3.10;99.90
52125;DHT22;38119;52.710;6.398;2024-01-27T04:12:47;3.00;99.90
52125;DHT22;38119;52.710;6.398;2024-01-27T04:15:13;3.10;99.90
52125;DHT22;38119;52.710;6.398;2024-01-27T04:17:39;3.00;99.90
52125;DHT22;38119;52.710;6.398;2024-01-27T04:20:06;3.00;99.90
52125;DHT22;38119;52.710;6.398;2024-01-27T04:22:35;3.00;99.90
52125;DHT22;38119;52.710;6.398;2024-01-27T04:25:01;2.90;99.90
52125;DHT22;38119;52.710;6.398;2024-01-27T04:27:28;2.90;99.90
52125;DHT22;38119;52.710;6.398;2024-01-27T04:29:53;2.90;99.90
52125;DHT22;38119;52.710;6.398;2024-01-27T04:32:19;2.90;99.90
52125;DHT22;38119;52.710;6.398;2024-01-27T04:34:46;2.90;99.90
52125;DHT22;38119;52.710;6.398;2024-01-27T04:37:12;2.90;99.90
52125;DHT22;38119;52.710;6.398;2024-01-27T04:39:38;2.90;99.90
52125;DHT22;38119;52.710;6.398;2024-01-27T04:42:03;3.00;99.90
52125;DHT22;38119;52.710;6.398;2024-01-27T04:44:31;3.00;99.90
52125;DHT22;38119;52.710;6.398;2024-01-27T04:46:57;3.00;99.90
52125;DHT22;38119;52.710;6.398;2024-01-27T04:49:23;3.00;99.90
52125;DHT22;38119;52.710;6.398;2024-01-27T04:51:48;3.00;99.90
52125;DHT22;38119;52.710;6.398;2024-01-27T04:54:14;3.00;99.90
52125;DHT22;38119;52.710;6.398;2024-01-27T04:56:39;3.00;99.90
52125;DHT22;38119;52.710;6.398;2024-01-27T04:59:05;3.00;99.90
52125;DHT22;38119;52.710;6.398;2024-01-27T05:01:32;3.00;99.90
52125;DHT22;38119;52.710;6.398;2024-01-27T05:03:57;2.90;99.90
52125;DHT22;38119;52.710;6.398;2024-01-27T05:06:23;3.00;99.90
52125;DHT22;38119;52.710;6.398;2024-01-27T05:08:48;3.00;99.90
52125;DHT22;38119;52.710;6.398;2024-01-27T05:11:15;2.90;99.90
52125;DHT22;38119;52.710;6.398;2024-01-27T05:13:41;3.00;99.90
52125;DHT22;38119;52.710;6.398;2024-01-27T05:16:07;3.00;99.90
52125;DHT22;38119;52.710;6.398;2024-01-27T05:18:32;3.00;99.90
52125;DHT22;38119;52.710;6.398;2024-01-27T05:20:58;3.00;99.90
52125;DHT22;38119;52.710;6.398;2024-01-27T05:23:23;3.00;99.90
52125;DHT22;38119;52.710;6.398;2024-01-27T05:25:49;3.00;99.90
52125;DHT22;38119;52.710;6.398;2024-01-27T05:28:15;3.00;99.90
52125;DHT22;38119;52.710;6.398;2024-01-27T05:30:40;3.00;99.90
52125;DHT22;38119;52.710;6.398;2024-01-27T05:33:06;3.00;99.90
52125;DHT22;38119;52.710;6.398;2024-01-27T05:35:31;3.00;99.90
52125;DHT22;38119;52.710;6.398;2024-01-27T05:37:57;3.00;99.90
52125;DHT22;38119;52.710;6.398;2024-01-27T05:40:22;3.00;99.90
52125;DHT22;38119;52.710;6.398;2024-01-27T05:42:48;3.10;99.90
52125;DHT22;38119;52.710;6.398;2024-01-27T05:45:15;3.00;99.90
52125;DHT22;38119;52.710;6.398;2024-01-27T05:47:40;3.00;99.90
52125;DHT22;38119;52.710;6.398;2024-01-27T05:50:06;3.10;99.90
52125;DHT22;38119;52.710;6.398;2024-01-27T05:52:34;3.00;99.90
52125;DHT22;38119;52.710;6.398;2024-01-27T05:55:00;3.00;99.90
52125;DHT22;38119;52.710;6.398;2024-01-27T05:57:26;3.00;99.90
52125;DHT22;38119;52.710;6.398;2024-01-27T05:59:52;3.00;99.90
52125;DHT22;38119;52.710;6.398;2024-01-27T06:02:17;3.00;99.90
52125;DHT22;38119;52.710;6.398;2024-01-27T06:04:43;2.90;99.90
52125;DHT22;38119;52.710;6.398;2024-01-27T06:07:09;3.00;99.90
52125;DHT22;38119;52.710;6.398;2024-01-27T06:09:34;3.00;99.90
52125;DHT22;38119;52.710;6.398;2024-01-27T06:12:02;2.90;99.90
52125;DHT22;38119;52.710;6.398;2024-01-27T06:14:28;2.90;99.90
52125;DHT22;38119;52.710;6.398;2024-01-27T06:16:53;2.90;99.90
52125;DHT22;38119;52.710;6.398;2024-01-27T06:19:19;2.90;99.90
52125;DHT22;38119;52.710;6.398;2024-01-27T06:21:44;2.90;99.90
52125;DHT22;38119;52.710;6.398;2024-01-27T06:24:10;2.90;99.90
52125;DHT22;38119;52.710;6.398;2024-01-27T06:26:35;2.90;99.90
52125;DHT22;38119;52.710;6.398;2024-01-27T06:29:01;2.90;99.90
52125;DHT22;38119;52.710;6.398;2024-01-27T06:31:28;2.90;99.90
52125;DHT22;38119;52.710;6.398;2024-01-27T06:33:53;2.90;99.90
52125;DHT22;38119;52.710;6.398;2024-01-27T06:36:19;2.90;99.90
52125;DHT22;38119;52.710;6.398;2024-01-27T06:38:44;2.90;99.90
52125;DHT22;38119;52.710;6.398;2024-01-27T06:41:10;2.90;99.90
52125;DHT22;38119;52.710;6.398;2024-01-27T06:43:36;2.90;99.90
52125;DHT22;38119;52.710;6.398;2024-01-27T06:46:01;2.90;99.90
52125;DHT22;38119;52.710;6.398;2024-01-27T06:48:27;2.90;99.90
52125;DHT22;38119;52.710;6.398;2024-01-27T06:50:52;2.80;99.90
52125;DHT22;38119;52.710;6.398;2024-01-27T06:53:18;4.00;99.90
52125;DHT22;38119;52.710;6.398;2024-01-27T06:55:45;2.90;99.90
52125;DHT22;38119;52.710;6.398;2024-01-27T06:58:10;2.80;99.90
52125;DHT22;38119;52.710;6.398;2024-01-27T07:00:36;2.80;99.90
52125;DHT22;38119;52.710;6.398;2024-01-27T07:03:02;2.80;99.90
52125;DHT22;38119;52.710;6.398;2024-01-27T07:05:28;2.80;99.90
52125;DHT22;38119;52.710;6.398;2024-01-27T07:07:53;2.80;99.90
52125;DHT22;38119;52.710;6.398;2024-01-27T07:10:19;2.80;99.90
52125;DHT22;38119;52.710;6.398;2024-01-27T07:12:45;2.70;99.90
52125;DHT22;38119;52.710;6.398;2024-01-27T07:15:10;2.70;99.90
52125;DHT22;38119;52.710;6.398;2024-01-27T07:17:36;3.20;99.90
52125;DHT22;38119;52.710;6.398;2024-01-27T07:20:01;2.70;99.90
52125;DHT22;38119;52.710;6.398;2024-01-27T07:22:27;2.70;99.90
52125;DHT22;38119;52.710;6.398;2024-01-27T07:24:52;2.70;99.90
52125;DHT22;38119;52.710;6.398;2024-01-27T07:27:18;2.70;99.90
52125;DHT22;38119;52.710;6.398;2024-01-27T07:29:44;2.70;99.90
52125;DHT22;38119;52.710;6.398;2024-01-27T07:32:10;2.70;99.90
52125;DHT22;38119;52.710;6.398;2024-01-27T07:34:41;2.60;99.90
52125;DHT22;38119;52.710;6.398;2024-01-27T07:37:07;2.60;99.90
52125;DHT22;38119;52.710;6.398;2024-01-27T07:39:33;2.60;99.90
52125;DHT22;38119;52.710;6.398;2024-01-27T07:41:59;2.60;99.90
52125;DHT22;38119;52.710;6.398;2024-01-27T07:44:24;2.50;99.90
52125;DHT22;38119;52.710;6.398;2024-01-27T07:46:50;2.50;99.90
52125;DHT22;38119;52.710;6.398;2024-01-27T07:49:15;2.40;99.90
52125;DHT22;38119;52.710;6.398;2024-01-27T07:51:41;2.40;99.90
52125;DHT22;38119;52.710;6.398;2024-01-27T07:54:07;2.40;99.90
52125;DHT22;38119;52.710;6.398;2024-01-27T07:56:33;2.40;99.90
52125;DHT22;38119;52.710;6.398;2024-01-27T07:58:58;2.40;99.90
52125;DHT22;38119;52.710;6.398;2024-01-27T08:01:24;2.40;99.90
52125;DHT22;38119;52.710;6.398;2024-01-27T08:03:49;2.40;99.90
52125;DHT22;38119;52.710;6.398;2024-01-27T08:06:20;2.40;99.90
52125;DHT22;38119;52.710;6.398;2024-01-27T08:08:47;2.40;99.90
52125;DHT22;38119;52.710;6.398;2024-01-27T08:11:17;2.50;99.90
52125;DHT22;38119;52.710;6.398;2024-01-27T08:13:43;2.50;99.90
52125;DHT22;38119;52.710;6.398;2024-01-27T08:16:09;2.50;99.90
52125;DHT22;38119;52.710;6.398;2024-01-27T08:18:41;2.50;99.90
52125;DHT22;38119;52.710;6.398;2024-01-27T08:21:09;2.50;99.90
52125;DHT22;38119;52.710;6.398;2024-01-27T08:23:34;2.50;99.90
52125;DHT22;38119;52.710;6.398;2024-01-27T08:26:00;2.60;99.90
52125;DHT22;38119;52.710;6.398;2024-01-27T08:28:26;2.60;99.90
52125;DHT22;38119;52.710;6.398;2024-01-27T08:30:52;2.60;99.90
52125;DHT22;38119;52.710;6.398;2024-01-27T08:33:17;2.60;99.90
52125;DHT22;38119;52.710;6.398;2024-01-27T08:35:43;2.60;99.90
52125;DHT22;38119;52.710;6.398;2024-01-27T08:38:09;2.70;99.90
52125;DHT22;38119;52.710;6.398;2024-01-27T08:40:35;2.70;99.90
52125;DHT22;38119;52.710;6.398;2024-01-27T08:43:01;2.70;99.90
52125;DHT22;38119;52.710;6.398;2024-01-27T08:45:30;2.70;99.90
52125;DHT22;38119;52.710;6.398;2024-01-27T08:47:55;2.70;99.90
52125;DHT22;38119;52.710;6.398;2024-01-27T08:50:21;2.80;99.90
52125;DHT22;38119;52.710;6.398;2024-01-27T08:52:46;2.80;99.90
52125;DHT22;38119;52.710;6.398;2024-01-27T08:55:12;2.80;99.90
52125;DHT22;38119;52.710;6.398;2024-01-27T08:57:38;2.80;99.90
52125;DHT22;38119;52.710;6.398;2024-01-27T09:00:04;2.90;99.90
52125;DHT22;38119;52.710;6.398;2024-01-27T09:02:30;2.90;99.90
52125;DHT22;38119;52.710;6.398;2024-01-27T09:04:55;2.90;99.90
52125;DHT22;38119;52.710;6.398;2024-01-27T09:07:21;2.90;99.90
52125;DHT22;38119;52.710;6.398;2024-01-27T09:09:47;3.00;99.90
52125;DHT22;38119;52.710;6.398;2024-01-27T09:12:12;3.00;99.90
52125;DHT22;38119;52.710;6.398;2024-01-27T09:14:38;3.00;99.90
52125;DHT22;38119;52.710;6.398;2024-01-27T09:17:04;3.10;99.90
52125;DHT22;38119;52.710;6.398;2024-01-27T09:19:29;3.10;99.90
52125;DHT22;38119;52.710;6.398;2024-01-27T09:21:55;3.20;99.90
52125;DHT22;38119;52.710;6.398;2024-01-27T09:24:20;3.20;99.90
52125;DHT22;38119;52.710;6.398;2024-01-27T09:26:46;3.20;99.90
52125;DHT22;38119;52.710;6.398;2024-01-27T09:29:12;3.30;99.90
52125;DHT22;38119;52.710;6.398;2024-01-27T09:31:37;3.30;99.90
52125;DHT22;38119;52.710;6.398;2024-01-27T09:34:03;3.40;99.90
52125;DHT22;38119;52.710;6.398;2024-01-27T09:36:29;3.50;99.90
52125;DHT22;38119;52.710;6.398;2024-01-27T09:38:54;3.50;99.90
52125;DHT22;38119;52.710;6.398;2024-01-27T09:41:20;3.60;99.90
52125;DHT22;38119;52.710;6.398;2024-01-27T09:43:46;3.70;99.90
52125;DHT22;38119;52.710;6.398;2024-01-27T09:46:16;3.80;99.90
52125;DHT22;38119;52.710;6.398;2024-01-27T09:48:42;3.80;99.90
52125;DHT22;38119;52.710;6.398;2024-01-27T09:51:08;3.90;99.90
52125;DHT22;38119;52.710;6.398;2024-01-27T09:53:34;4.00;99.90
52125;DHT22;38119;52.710;6.398;2024-01-27T09:56:01;4.00;99.90
52125;DHT22;38119;52.710;6.398;2024-01-27T09:58:30;4.00;99.90
52125;DHT22;38119;52.710;6.398;2024-01-27T10:00:57;4.10;99.90
52125;DHT22;38119;52.710;6.398;2024-01-27T10:03:28;4.20;99.90
52125;DHT22;38119;52.710;6.398;2024-01-27T10:05:55;4.30;99.90
52125;DHT22;38119;52.710;6.398;2024-01-27T10:08:22;4.30;99.90
52125;DHT22;38119;52.710;6.398;2024-01-27T10:10:56;4.40;99.90
52125;DHT22;38119;52.710;6.398;2024-01-27T10:13:22;4.50;99.90
52125;DHT22;38119;52.710;6.398;2024-01-27T10:16:01;4.60;99.90
52125;DHT22;38119;52.710;6.398;2024-01-27T10:18:28;4.70;99.90
52125;DHT22;38119;52.710;6.398;2024-01-27T10:20:54;4.70;99.90
52125;DHT22;38119;52.710;6.398;2024-01-27T10:23:19;4.80;99.90
52125;DHT22;38119;52.710;6.398;2024-01-27T10:25:45;4.90;99.90
52125;DHT22;38119;52.710;6.398;2024-01-27T10:28:10;4.90;99.90
52125;DHT22;38119;52.710;6.398;2024-01-27T10:30:37;5.00;99.90
52125;DHT22;38119;52.710;6.398;2024-01-27T10:33:03;5.10;99.90
52125;DHT22;38119;52.710;6.398;2024-01-27T10:35:29;5.20;99.90
52125;DHT22;38119;52.710;6.398;2024-01-27T10:37:55;5.20;99.90
52125;DHT22;38119;52.710;6.398;2024-01-27T10:40:21;5.30;99.90
52125;DHT22;38119;52.710;6.398;2024-01-27T10:43:07;5.30;99.90
52125;DHT22;38119;52.710;6.398;2024-01-27T10:45:40;5.40;99.90
52125;DHT22;38119;52.710;6.398;2024-01-27T10:48:09;5.50;99.90
52125;DHT22;38119;52.710;6.398;2024-01-27T10:50:39;5.50;99.90
52125;DHT22;38119;52.710;6.398;2024-01-27T10:53:09;5.50;99.90
52125;DHT22;38119;52.710;6.398;2024-01-27T10:55:35;5.60;99.90
52125;DHT22;38119;52.710;6.398;2024-01-27T10:58:03;5.70;99.90
52125;DHT22;38119;52.710;6.398;2024-01-27T11:00:29;5.70;99.90
52125;DHT22;38119;52.710;6.398;2024-01-27T11:03:00;5.80;99.90
52125;DHT22;38119;52.710;6.398;2024-01-27T11:05:27;5.80;99.90
52125;DHT22;38119;52.710;6.398;2024-01-27T11:07:58;5.90;99.90
52125;DHT22;38119;52.710;6.398;2024-01-27T11:10:25;6.00;99.90
52125;DHT22;38119;52.710;6.398;2024-01-27T11:12:52;6.00;99.90
52125;DHT22;38119;52.710;6.398;2024-01-27T11:15:21;6.10;99.90
52125;DHT22;38119;52.710;6.398;2024-01-27T11:17:46;6.10;99.90
52125;DHT22;38119;52.710;6.398;2024-01-27T11:20:12;6.20;99.90
52125;DHT22;38119;52.710;6.398;2024-01-27T11:22:38;6.20;99.90
52125;DHT22;38119;52.710;6.398;2024-01-27T11:27:37;6.30;99.90
52125;DHT22;38119;52.710;6.398;2024-01-27T11:30:04;6.40;99.90
52125;DHT22;38119;52.710;6.398;2024-01-27T11:32:31;6.40;99.90
52125;DHT22;38119;52.710;6.398;2024-01-27T11:34:56;6.50;99.90
52125;DHT22;38119;52.710;6.398;2024-01-27T11:37:23;6.50;99.90
52125;DHT22;38119;52.710;6.398;2024-01-27T11:39:51;6.70;99.90
52125;DHT22;38119;52.710;6.398;2024-01-27T11:42:19;6.60;99.90
52125;DHT22;38119;52.710;6.398;2024-01-27T11:44:45;6.70;99.90
52125;DHT22;38119;52.710;6.398;2024-01-27T11:47:15;6.70;99.90
52125;DHT22;38119;52.710;6.398;2024-01-27T11:49:42;6.80;99.90
52125;DHT22;38119;52.710;6.398;2024-01-27T11:52:08;6.90;99.90
52125;DHT22;38119;52.710;6.398;2024-01-27T11:54:34;6.90;99.90
52125;DHT22;38119;52.710;6.398;2024-01-27T11:56:59;7.00;99.90
52125;DHT22;38119;52.710;6.398;2024-01-27T11:59:27;7.10;99.90
52125;DHT22;38119;52.710;6.398;2024-01-27T12:01:53;7.20;99.90
52125;DHT22;38119;52.710;6.398;2024-01-27T12:04:19;7.20;99.90
52125;DHT22;38119;52.710;6.398;2024-01-27T12:06:47;7.30;99.90
52125;DHT22;38119;52.710;6.398;2024-01-27T12:09:12;7.60;99.90
52125;DHT22;38119;52.710;6.398;2024-01-27T12:11:39;7.40;99.90
52125;DHT22;38119;52.710;6.398;2024-01-27T12:14:07;7.50;99.90
52125;DHT22;38119;52.710;6.398;2024-01-27T12:16:33;7.50;99.90
52125;DHT22;38119;52.710;6.398;2024-01-27T12:18:59;7.60;99.90
52125;DHT22;38119;52.710;6.398;2024-01-27T12:21:25;7.60;99.90
52125;DHT22;38119;52.710;6.398;2024-01-27T12:23:54;7.60;99.90
52125;DHT22;38119;52.710;6.398;2024-01-27T12:26:28;7.60;99.90
52125;DHT22;38119;52.710;6.398;2024-01-27T12:28:55;7.60;99.90
52125;DHT22;38119;52.710;6.398;2024-01-27T12:31:23;7.70;99.90
52125;DHT22;38119;52.710;6.398;2024-01-27T12:33:53;7.70;99.90
52125;DHT22;38119;52.710;6.398;2024-01-27T12:36:19;7.70;99.90
52125;DHT22;38119;52.710;6.398;2024-01-27T12:38:59;7.70;99.90
52125;DHT22;38119;52.710;6.398;2024-01-27T12:41:25;7.80;99.90
52125;DHT22;38119;52.710;6.398;2024-01-27T12:43:52;7.80;99.90
52125;DHT22;38119;52.710;6.398;2024-01-27T12:46:17;7.80;99.90
52125;DHT22;38119;52.710;6.398;2024-01-27T12:48:44;7.90;99.90
52125;DHT22;38119;52.710;6.398;2024-01-27T12:51:10;7.80;99.90
52125;DHT22;38119;52.710;6.398;2024-01-27T12:53:37;7.80;99.90
52125;DHT22;38119;52.710;6.398;2024-01-27T12:56:04;7.80;99.90
52125;DHT22;38119;52.710;6.398;2024-01-27T12:58:29;7.80;99.90
52125;DHT22;38119;52.710;6.398;2024-01-27T13:00:55;7.90;99.90
52125;DHT22;38119;52.710;6.398;2024-01-27T13:03:20;7.90;99.90
52125;DHT22;38119;52.710;6.398;2024-01-27T13:05:46;7.90;99.90
52125;DHT22;38119;52.710;6.398;2024-01-27T13:08:12;7.90;99.90
52125;DHT22;38119;52.710;6.398;2024-01-27T13:10:37;7.90;99.90
52125;DHT22;38119;52.710;6.398;2024-01-27T13:13:03;7.90;99.90
52125;DHT22;38119;52.710;6.398;2024-01-27T13:15:30;8.00;99.90
52125;DHT22;38119;52.710;6.398;2024-01-27T13:17:55;8.00;99.90
52125;DHT22;38119;52.710;6.398;2024-01-27T13:20:21;8.00;99.90
52125;DHT22;38119;52.710;6.398;2024-01-27T13:22:46;8.00;99.90
52125;DHT22;38119;52.710;6.398;2024-01-27T13:25:12;8.00;99.90
52125;DHT22;38119;52.710;6.398;2024-01-27T13:27:38;8.00;99.90
52125;DHT22;38119;52.710;6.398;2024-01-27T13:30:04;8.10;99.90
52125;DHT22;38119;52.710;6.398;2024-01-27T13:32:29;8.10;99.90
52125;DHT22;38119;52.710;6.398;2024-01-27T13:34:55;8.20;99.90
52125;DHT22;38119;52.710;6.398;2024-01-27T13:37:21;8.30;99.90
52125;DHT22;38119;52.710;6.398;2024-01-27T13:39:47;8.40;99.90
52125;DHT22;38119;52.710;6.398;2024-01-27T13:42:13;8.40;99.90
52125;DHT22;38119;52.710;6.398;2024-01-27T13:44:38;8.50;99.90
52125;DHT22;38119;52.710;6.398;2024-01-27T13:47:05;8.60;99.90
52125;DHT22;38119;52.710;6.398;2024-01-27T13:49:31;8.70;99.90
52125;DHT22;38119;52.710;6.398;2024-01-27T13:51:57;8.70;99.90
52125;DHT22;38119;52.710;6.398;2024-01-27T13:54:23;8.60;99.90
52125;DHT22;38119;52.710;6.398;2024-01-27T13:56:51;8.50;99.90
52125;DHT22;38119;52.710;6.398;2024-01-27T13:59:17;8.40;99.90
52125;DHT22;38119;52.710;6.398;2024-01-27T14:01:43;8.30;99.90
52125;DHT22;38119;52.710;6.398;2024-01-27T14:04:08;8.50;99.90
52125;DHT22;38119;52.710;6.398;2024-01-27T14:06:34;8.60;99.90
52125;DHT22;38119;52.710;6.398;2024-01-27T14:09:00;8.80;99.90
52125;DHT22;38119;52.710;6.398;2024-01-27T14:11:28;8.80;99.90
52125;DHT22;38119;52.710;6.398;2024-01-27T14:13:53;8.70;99.90
52125;DHT22;38119;52.710;6.398;2024-01-27T14:16:19;8.80;99.90
52125;DHT22;38119;52.710;6.398;2024-01-27T14:18:45;8.90;99.90
52125;DHT22;38119;52.710;6.398;2024-01-27T14:21:11;9.00;99.90
52125;DHT22;38119;52.710;6.398;2024-01-27T14:23:36;8.90;99.90
52125;DHT22;38119;52.710;6.398;2024-01-27T14:26:03;8.90;99.90
52125;DHT22;38119;52.710;6.398;2024-01-27T14:28:29;8.80;99.90
52125;DHT22;38119;52.710;6.398;2024-01-27T14:30:55;8.70;99.90
52125;DHT22;38119;52.710;6.398;2024-01-27T14:33:20;8.50;99.90
52125;DHT22;38119;52.710;6.398;2024-01-27T14:35:47;8.30;99.90
52125;DHT22;38119;52.710;6.398;2024-01-27T14:38:13;8.10;99.90
52125;DHT22;38119;52.710;6.398;2024-01-27T14:40:39;7.90;99.90
52125;DHT22;38119;52.710;6.398;2024-01-27T14:43:05;7.80;99.90
52125;DHT22;38119;52.710;6.398;2024-01-27T14:45:35;7.80;99.90
52125;DHT22;38119;52.710;6.398;2024-01-27T14:48:01;7.70;99.90
52125;DHT22;38119;52.710;6.398;2024-01-27T14:50:27;7.60;99.90
52125;DHT22;38119;52.710;6.398;2024-01-27T14:52:53;7.50;99.90
52125;DHT22;38119;52.710;6.398;2024-01-27T14:55:19;7.40;99.90
52125;DHT22;38119;52.710;6.398;2024-01-27T14:57:44;7.30;99.90
52125;DHT22;38119;52.710;6.398;2024-01-27T15:00:10;7.30;99.90
52125;DHT22;38119;52.710;6.398;2024-01-27T15:02:36;7.20;99.90
52125;DHT22;38119;52.710;6.398;2024-01-27T15:05:02;7.10;99.90
52125;DHT22;38119;52.710;6.398;2024-01-27T15:07:28;7.10;99.90
52125;DHT22;38119;52.710;6.398;2024-01-27T15:09:55;7.00;99.90
52125;DHT22;38119;52.710;6.398;2024-01-27T15:12:21;7.00;99.90
52125;DHT22;38119;52.710;6.398;2024-01-27T15:14:49;6.90;99.90
52125;DHT22;38119;52.710;6.398;2024-01-27T15:17:14;6.90;99.90
52125;DHT22;38119;52.710;6.398;2024-01-27T15:19:40;6.80;99.90
52125;DHT22;38119;52.710;6.398;2024-01-27T15:22:06;6.80;99.90
52125;DHT22;38119;52.710;6.398;2024-01-27T15:24:31;6.70;99.90
52125;DHT22;38119;52.710;6.398;2024-01-27T15:26:59;6.70;99.90
52125;DHT22;38119;52.710;6.398;2024-01-27T15:29:24;6.60;99.90
52125;DHT22;38119;52.710;6.398;2024-01-27T15:31:50;6.60;99.90
52125;DHT22;38119;52.710;6.398;2024-01-27T15:34:15;6.60;99.90
52125;DHT22;38119;52.710;6.398;2024-01-27T15:36:41;6.50;99.90
52125;DHT22;38119;52.710;6.398;2024-01-27T15:39:07;6.50;99.90